createdAt,value
2022-08-25T00:02:05.076Z,63.15
2022-08-25T00:04:35.444Z,63.44
2022-08-25T00:07:05.720Z,63.08
2022-08-25T00:09:35.274Z,64.73
2022-08-25T00:12:05.066Z,63.96
2022-08-25T00:14:35.972Z,64.05
2022-08-25T00:17:06.719Z,64.22
2022-08-25T00:19:36.881Z,63.78
2022-08-25T00:22:05.407Z,63.78
2022-08-25T00:24:33.130Z,63.39
2022-08-25T00:27:01.923Z,64.33
2022-08-25T00:29:31.354Z,64.94
2022-08-25T00:31:59.496Z,65.18
2022-08-25T00:34:33.585Z,65.39
2022-08-25T00:37:04.172Z,66.31
2022-08-25T00:39:31.918Z,64.59
2022-08-25T00:42:00.175Z,64.40
2022-08-25T00:44:30.216Z,64.82
2022-08-25T00:47:01.111Z,65.90
2022-08-25T00:49:39.228Z,66.04
2022-08-25T00:52:18.243Z,65.39
2022-08-25T00:54:52.376Z,66.80
2022-08-25T00:57:34.514Z,66.69
2022-08-25T01:00:15.836Z,66.33
2022-08-25T01:02:43.716Z,65.78
2022-08-25T01:05:12.659Z,65.25
2022-08-25T01:07:43.615Z,65.13
2022-08-25T01:10:14.097Z,65.72
2022-08-25T01:12:42.092Z,65.99
2022-08-25T01:15:12.184Z,65.44
2022-08-25T01:17:50.382Z,65.70
2022-08-25T01:20:20.789Z,65.35
2022-08-25T01:22:55.208Z,65.35
2022-08-25T01:25:35.215Z,66.70
2022-08-25T01:28:05.309Z,65.90
2022-08-25T01:30:33.765Z,65.77
2022-08-25T01:33:07.469Z,67.30
2022-08-25T01:35:36.576Z,65.33
2022-08-25T01:38:05.719Z,65.36
2022-08-25T01:40:35.271Z,66.53
2022-08-25T01:43:15.168Z,66.23
2022-08-25T01:45:47.305Z,66.93
2022-08-25T01:48:16.319Z,66.89
2022-08-25T01:50:44.312Z,67.39
2022-08-25T01:53:19.976Z,67.14
2022-08-25T01:56:01.371Z,66.32
2022-08-25T01:58:36.137Z,67.05
2022-08-25T02:01:08.565Z,66.78
2022-08-25T02:03:42.368Z,66.90
2022-08-25T02:06:14.849Z,67.26
2022-08-25T02:08:43.626Z,67.98
2022-08-25T02:11:13.903Z,67.89
2022-08-25T02:13:42.255Z,67.85
2022-08-25T02:16:15.204Z,67.85
2022-08-25T02:18:43.224Z,67.82
2022-08-25T02:21:11.466Z,68.56
2022-08-25T02:23:39.055Z,69.00
2022-08-25T02:26:07.059Z,69.46
2022-08-25T02:28:35.120Z,68.71
2022-08-25T02:31:04.494Z,68.77
2022-08-25T02:33:32.481Z,68.44
2022-08-25T02:36:02.072Z,68.16
2022-08-25T02:38:29.968Z,68.32
2022-08-25T02:40:59.907Z,68.11
2022-08-25T02:43:29.181Z,67.98
2022-08-25T02:45:56.933Z,67.26
2022-08-25T02:48:25.008Z,67.64
2022-08-25T02:50:54.093Z,67.00
2022-08-25T02:53:21.880Z,67.12
2022-08-25T02:55:49.991Z,67.53
2022-08-25T02:58:17.870Z,67.55
2022-08-25T03:00:47.285Z,68.01
2022-08-25T03:03:15.440Z,67.67
2022-08-25T03:05:43.652Z,67.44
2022-08-25T03:08:11.600Z,67.32
2022-08-25T03:10:39.871Z,67.34
2022-08-25T03:13:07.667Z,67.27
2022-08-25T03:15:37.950Z,67.37
2022-08-25T03:18:08.643Z,67.83
2022-08-25T03:20:36.470Z,68.31
2022-08-25T03:23:05.442Z,68.32
2022-08-25T03:25:52.572Z,68.19
2022-08-25T03:28:28.931Z,68.22
2022-08-25T03:30:59.212Z,67.42
2022-08-25T03:33:28.654Z,67.72
2022-08-25T03:35:56.926Z,67.80
2022-08-25T03:38:25.968Z,67.49
2022-08-25T03:40:54.385Z,68.01
2022-08-25T03:43:22.237Z,68.45
2022-08-25T03:45:50.203Z,68.41
2022-08-25T03:48:18.179Z,68.99
2022-08-25T03:50:50.763Z,68.96
2022-08-25T03:53:20.738Z,69.14
2022-08-25T03:55:48.626Z,70.37
2022-08-25T03:58:17.109Z,69.99
2022-08-25T04:00:45.103Z,69.96
2022-08-25T04:03:13.112Z,69.89
2022-08-25T04:05:40.938Z,69.81
2022-08-25T04:08:09.277Z,69.86
2022-08-25T04:10:37.707Z,70.28
2022-08-25T04:13:06.589Z,70.24
2022-08-25T04:15:34.576Z,70.13
2022-08-25T04:18:03.394Z,70.79
2022-08-25T04:20:31.025Z,69.83
2022-08-25T04:23:01.340Z,69.71
2022-08-25T04:25:29.148Z,69.67
2022-08-25T04:27:57.394Z,70.11
2022-08-25T04:30:25.102Z,68.84
2022-08-25T04:32:53.075Z,68.04
2022-08-25T04:35:22.316Z,68.33
2022-08-25T04:37:50.040Z,67.12
2022-08-25T04:40:18.346Z,66.73
2022-08-25T04:42:48.173Z,66.17
2022-08-25T04:45:16.074Z,66.64
2022-08-25T04:47:44.161Z,65.85
2022-08-25T04:50:11.856Z,64.97
2022-08-25T04:52:39.863Z,64.69
2022-08-25T04:55:08.095Z,63.19
2022-08-25T04:57:36.034Z,63.31
2022-08-25T05:00:05.027Z,63.07
2022-08-25T05:02:32.990Z,62.77
2022-08-25T05:05:01.506Z,62.09
2022-08-25T05:07:29.210Z,61.58
2022-08-25T05:09:57.172Z,60.57
2022-08-25T05:12:24.858Z,60.53
2022-08-25T05:14:53.977Z,59.67
2022-08-25T05:17:22.518Z,60.80
2022-08-25T05:19:50.285Z,59.80
2022-08-25T05:22:18.438Z,59.65
2022-08-25T05:24:46.543Z,59.38
2022-08-25T05:27:14.286Z,59.38
2022-08-25T05:29:41.918Z,59.05
2022-08-25T05:32:10.162Z,58.76
2022-08-25T05:34:38.288Z,58.45
2022-08-25T05:37:08.287Z,58.25
2022-08-25T05:39:39.588Z,57.89
2022-08-25T05:42:07.528Z,57.67
2022-08-25T05:44:35.210Z,58.62
2022-08-25T05:47:03.191Z,57.96
2022-08-25T05:49:30.842Z,58.03
2022-08-25T05:51:58.579Z,57.64
2022-08-25T05:54:27.006Z,58.04
2022-08-25T05:56:54.781Z,57.14
2022-08-25T05:59:22.493Z,57.26
2022-08-25T06:02:12.749Z,57.38
2022-08-25T06:04:41.395Z,56.25
2022-08-25T06:07:09.638Z,55.89
2022-08-25T06:09:41.911Z,56.43
2022-08-25T06:12:09.903Z,56.30
2022-08-25T06:14:40.158Z,56.05
2022-08-25T06:17:07.701Z,56.39
2022-08-25T06:19:35.798Z,55.79
2022-08-25T06:22:07.548Z,56.02
2022-08-25T06:24:36.020Z,54.99
2022-08-25T06:27:03.856Z,55.20
2022-08-25T06:29:31.714Z,56.33
2022-08-25T06:31:59.792Z,56.73
2022-08-25T06:34:27.412Z,56.03
2022-08-25T06:36:55.128Z,55.66
2022-08-25T06:39:24.398Z,55.18
2022-08-25T06:41:53.974Z,54.65
2022-08-25T06:44:23.115Z,54.81
2022-08-25T06:46:51.550Z,54.08
2022-08-25T06:49:19.298Z,54.16
2022-08-25T06:51:47.258Z,54.94
2022-08-25T06:54:15.434Z,54.93
2022-08-25T06:56:43.204Z,53.93
2022-08-25T06:59:11.561Z,52.88
2022-08-25T07:01:39.807Z,52.75
2022-08-25T07:04:11.848Z,52.79
2022-08-25T07:06:42.009Z,52.30
2022-08-25T07:09:11.480Z,52.42
2022-08-25T07:11:41.590Z,52.07
2022-08-25T07:14:11.846Z,52.01
2022-08-25T07:16:42.425Z,51.49
2022-08-25T07:19:14.761Z,51.11
2022-08-25T07:21:45.803Z,50.60
2022-08-25T07:24:14.473Z,50.43
2022-08-25T07:26:43.580Z,49.78
2022-08-25T07:29:14.295Z,50.70
2022-08-25T07:31:42.705Z,50.11
2022-08-25T07:34:29.504Z,49.77
2022-08-25T07:36:58.106Z,47.83
2022-08-25T07:39:26.748Z,46.97
2022-08-25T07:41:57.384Z,47.27
2022-08-25T07:44:27.913Z,46.98
2022-08-25T07:46:56.680Z,47.50
2022-08-25T07:49:36.222Z,46.84
2022-08-25T07:52:09.018Z,45.93
2022-08-25T07:54:38.090Z,45.56
2022-08-25T07:57:08.190Z,46.13
2022-08-25T07:59:40.438Z,45.43
2022-08-25T08:02:18.468Z,44.46
2022-08-25T08:04:50.161Z,43.41
2022-08-25T08:07:25.805Z,44.21
2022-08-25T08:13:02.183Z,42.05
2022-08-25T08:15:30.703Z,41.54
2022-08-25T08:17:59.773Z,41.94
2022-08-25T08:20:29.006Z,41.83
2022-08-25T08:22:57.209Z,42.13
2022-08-25T08:25:26.769Z,41.09
2022-08-25T08:27:56.317Z,40.94
2022-08-25T08:30:26.459Z,41.10
2022-08-25T08:33:11.261Z,41.28
2022-08-25T08:35:41.825Z,41.14
2022-08-25T08:38:16.027Z,41.12
2022-08-25T08:44:47.909Z,40.47
2022-08-25T08:47:28.036Z,39.16
2022-08-25T08:50:05.078Z,39.29
2022-08-25T08:52:46.110Z,39.58
2022-08-25T08:55:37.065Z,38.62
2022-08-25T08:58:19.831Z,37.99
2022-08-25T09:00:58.417Z,36.63
2022-08-25T09:03:40.529Z,36.87
2022-08-25T09:06:24.586Z,37.56
2022-08-25T09:08:55.647Z,37.36
2022-08-25T09:11:42.122Z,37.23
2022-08-25T09:14:34.066Z,33.86
2022-08-25T09:17:27.007Z,33.90
2022-08-25T09:20:18.758Z,34.60
2022-08-25T09:22:56.480Z,33.64
2022-08-25T09:25:54.066Z,31.56
2022-08-25T09:28:37.158Z,32.74
2022-08-25T09:31:24.355Z,32.12
2022-08-25T09:33:57.934Z,33.01
2022-08-25T09:36:26.920Z,33.15
2022-08-25T09:38:54.613Z,32.90
2022-08-25T09:41:47.100Z,33.48
2022-08-25T09:44:20.981Z,33.28
2022-08-25T09:47:02.124Z,32.77
2022-08-25T09:49:41.637Z,33.34
2022-08-25T09:52:31.941Z,33.54
2022-08-25T09:55:05.087Z,29.64
2022-08-25T09:57:44.726Z,29.15
2022-08-25T10:00:21.951Z,28.89
2022-08-25T10:03:14.084Z,28.99
2022-08-25T10:05:46.319Z,28.94
2022-08-25T10:08:32.868Z,29.14
2022-08-25T10:11:05.139Z,28.41
2022-08-25T10:13:51.431Z,28.72
2022-08-25T10:16:27.007Z,26.74
2022-08-25T10:19:02.377Z,27.57
2022-08-25T10:21:30.424Z,26.93
2022-08-25T10:24:01.661Z,27.92
2022-08-25T10:26:44.654Z,27.54
2022-08-25T10:29:35.940Z,26.77
2022-08-25T10:32:21.660Z,26.83
2022-08-25T10:34:51.362Z,26.40
2022-08-25T10:37:39.836Z,26.32
2022-08-25T10:40:21.796Z,25.74
2022-08-25T10:42:55.124Z,25.87
2022-08-25T10:45:43.669Z,26.32
2022-08-25T10:48:23.616Z,25.24
2022-08-25T10:51:18.855Z,24.71
2022-08-25T10:54:10.982Z,23.93
2022-08-25T10:56:42.871Z,25.00
2022-08-25T10:59:57.813Z,24.52
2022-08-25T11:02:38.409Z,25.09
2022-08-25T11:05:26.790Z,24.30
2022-08-25T11:08:14.509Z,24.45
2022-08-25T11:10:53.103Z,24.24
2022-08-25T11:13:31.833Z,24.70
2022-08-25T11:16:18.880Z,24.01
2022-08-25T11:19:05.419Z,24.11
2022-08-25T11:21:54.839Z,23.99
2022-08-25T11:24:49.214Z,24.12
2022-08-25T11:27:47.265Z,23.18
2022-08-25T11:30:18.741Z,24.52
2022-08-25T11:32:53.024Z,23.43
2022-08-25T11:35:30.337Z,24.23
2022-08-25T11:37:58.053Z,23.76
2022-08-25T11:40:50.465Z,24.49
2022-08-25T11:43:42.953Z,23.84
2022-08-25T11:46:48.976Z,23.99
2022-08-25T11:49:39.730Z,24.34
2022-08-25T11:52:34.524Z,24.62
2022-08-25T11:55:43.691Z,23.86
2022-08-25T11:58:44.907Z,24.02
2022-08-25T12:01:44.243Z,23.82
2022-08-25T12:04:30.963Z,24.12
2022-08-25T12:07:11.188Z,24.21
2022-08-25T12:09:51.405Z,24.21
2022-08-25T12:12:28.459Z,24.51
2022-08-25T12:15:15.048Z,24.26
2022-08-25T12:17:42.799Z,24.41
2022-08-25T12:20:11.175Z,24.35
2022-08-25T12:22:41.753Z,24.42
2022-08-25T12:25:28.885Z,24.08
2022-08-25T12:28:14.801Z,24.04
2022-08-25T12:30:57.068Z,23.67
2022-08-25T12:33:59.482Z,24.48
2022-08-25T12:36:33.615Z,23.96
2022-08-25T12:39:17.285Z,23.83
2022-08-25T12:41:58.687Z,24.13
2022-08-25T12:45:09.657Z,23.50
2022-08-25T12:47:41.849Z,23.80
2022-08-25T12:50:33.404Z,22.76
2022-08-25T12:53:19.109Z,23.35
2022-08-25T12:55:51.680Z,23.56
2022-08-25T12:58:20.307Z,23.84
2022-08-25T13:01:35.577Z,24.49
2022-08-25T13:04:23.153Z,24.56
2022-08-25T13:07:18.197Z,23.55
2022-08-25T13:09:58.768Z,23.77
2022-08-25T13:12:44.853Z,23.06
2022-08-25T13:15:25.258Z,22.90
2022-08-25T13:17:53.381Z,22.72
2022-08-25T13:20:29.295Z,22.58
2022-08-25T13:23:00.944Z,22.89
2022-08-25T13:25:32.420Z,22.89
2022-08-25T13:28:06.491Z,22.56
2022-08-25T13:30:39.444Z,22.82
2022-08-25T13:33:23.939Z,23.22
2022-08-25T13:36:14.559Z,22.40
2022-08-25T13:38:45.799Z,22.87
2022-08-25T13:41:20.632Z,22.23
2022-08-25T13:43:48.471Z,22.91
2022-08-25T13:46:22.379Z,22.83
2022-08-25T13:48:50.355Z,22.95
2022-08-25T13:51:22.574Z,23.65
2022-08-25T13:53:58.429Z,23.66
2022-08-25T13:56:39.978Z,23.85
2022-08-25T13:59:24.585Z,24.07
2022-08-25T14:01:55.380Z,24.21
2022-08-25T14:04:50.887Z,23.68
2022-08-25T14:07:22.826Z,23.46
2022-08-25T14:10:08.759Z,23.43
2022-08-25T14:12:41.398Z,23.58
2022-08-25T14:15:29.660Z,23.53
2022-08-25T14:18:18.194Z,23.99
2022-08-25T14:20:50.791Z,23.78
2022-08-25T14:23:22.445Z,23.90
2022-08-25T14:25:52.112Z,24.03
2022-08-25T14:28:23.010Z,24.40
2022-08-25T14:31:02.288Z,23.68
2022-08-25T14:33:37.496Z,23.90
2022-08-25T14:36:06.877Z,23.77
2022-08-25T14:38:35.578Z,24.35
2022-08-25T14:43:39.861Z,23.98
2022-08-25T14:46:18.045Z,23.97
2022-08-25T14:48:52.227Z,23.42
2022-08-25T14:51:20.457Z,23.50
2022-08-25T14:53:48.288Z,23.48
2022-08-25T14:56:16.436Z,23.62
2022-08-25T14:58:51.022Z,23.53
2022-08-25T15:01:28.419Z,23.84
2022-08-25T15:04:13.195Z,23.52
2022-08-25T15:06:44.865Z,24.41
2022-08-25T15:09:16.618Z,24.68
2022-08-25T15:11:47.325Z,23.93
2022-08-25T15:14:28.634Z,23.59
2022-08-25T15:17:02.025Z,23.51
2022-08-25T15:19:30.327Z,24.41
2022-08-25T15:21:59.355Z,24.18
2022-08-25T15:24:28.949Z,24.46
2022-08-25T15:27:03.953Z,24.65
2022-08-25T15:29:34.944Z,24.36
2022-08-25T15:32:07.099Z,24.36
2022-08-25T15:34:36.612Z,23.71
2022-08-25T15:37:16.211Z,24.29
2022-08-25T15:39:45.679Z,24.53
2022-08-25T15:42:14.001Z,24.98
2022-08-25T15:44:42.491Z,24.44
2022-08-25T15:47:24.166Z,25.05
2022-08-25T15:50:03.952Z,24.06
2022-08-25T15:52:46.066Z,22.70
2022-08-25T15:55:15.100Z,23.06
2022-08-25T15:57:43.702Z,23.45
2022-08-25T16:00:13.643Z,23.68
2022-08-25T16:02:45.403Z,23.79
2022-08-25T16:05:16.493Z,23.92
2022-08-25T16:07:51.796Z,23.63
2022-08-25T16:10:20.026Z,23.30
2022-08-25T16:12:48.175Z,22.81
2022-08-25T16:15:16.176Z,22.60
2022-08-25T16:17:47.006Z,22.47
2022-08-25T16:20:20.826Z,22.98
2022-08-25T16:22:51.060Z,22.74
2022-08-25T16:25:19.672Z,23.54
2022-08-25T16:27:48.199Z,23.45
2022-08-25T16:30:17.783Z,23.41
2022-08-25T16:32:46.813Z,23.58
2022-08-25T16:35:14.538Z,23.45
2022-08-25T16:37:42.648Z,23.45
2022-08-25T16:40:14.805Z,23.37
2022-08-25T16:42:42.744Z,23.63
2022-08-25T16:45:11.899Z,23.60
2022-08-25T16:47:39.755Z,24.48
2022-08-25T16:50:11.461Z,24.05
2022-08-25T16:52:58.291Z,24.38
2022-08-25T16:55:29.119Z,24.26
2022-08-25T16:58:07.894Z,24.47
2022-08-25T17:00:38.250Z,24.91
2022-08-25T17:03:07.715Z,25.06
2022-08-25T17:05:40.775Z,25.29
2022-08-25T17:08:27.381Z,25.31
2022-08-25T17:11:03.735Z,25.48
2022-08-25T17:13:33.118Z,25.66
2022-08-25T17:16:03.177Z,26.04
2022-08-25T17:18:31.273Z,26.45
2022-08-25T17:21:05.814Z,26.31
2022-08-25T17:23:35.368Z,26.62
2022-08-25T17:26:05.371Z,27.56
2022-08-25T17:28:34.073Z,27.87
2022-08-25T17:31:04.705Z,28.15
2022-08-25T17:33:32.936Z,28.88
2022-08-25T17:36:00.697Z,29.26
2022-08-25T17:38:30.304Z,29.44
2022-08-25T17:41:03.572Z,29.80
2022-08-25T17:43:35.886Z,30.49
2022-08-25T17:46:06.494Z,29.96
2022-08-25T17:48:36.147Z,30.35
2022-08-25T17:51:05.273Z,30.63
2022-08-25T17:53:35.071Z,30.95
2022-08-25T17:56:06.551Z,31.03
2022-08-25T17:58:35.544Z,31.31
2022-08-25T18:01:05.444Z,31.70
2022-08-25T18:03:33.791Z,31.46
2022-08-25T18:06:01.481Z,31.44
2022-08-25T18:08:35.204Z,32.26
2022-08-25T18:11:05.055Z,32.55
2022-08-25T18:13:32.996Z,32.88
2022-08-25T18:16:01.040Z,32.96
2022-08-25T18:18:31.315Z,33.49
2022-08-25T18:20:58.943Z,33.55
2022-08-25T18:23:27.542Z,33.89
2022-08-25T18:26:01.017Z,34.46
2022-08-25T18:28:29.714Z,34.86
2022-08-25T18:30:57.869Z,35.23
2022-08-25T18:33:25.756Z,35.54
2022-08-25T18:35:58.297Z,35.43
2022-08-25T18:38:45.086Z,35.84
2022-08-25T18:41:13.658Z,35.87
2022-08-25T18:43:41.975Z,35.59
2022-08-25T18:46:10.016Z,35.90
2022-08-25T18:48:38.316Z,36.49
2022-08-25T18:51:10.576Z,36.82
2022-08-25T18:53:49.674Z,36.75
2022-08-25T18:56:22.534Z,36.97
2022-08-25T18:58:50.575Z,37.54
2022-08-25T19:01:19.817Z,37.65
2022-08-25T19:03:47.781Z,38.09
2022-08-25T19:06:16.943Z,38.27
2022-08-25T19:08:45.294Z,38.74
2022-08-25T19:11:13.132Z,38.92
2022-08-25T19:13:41.286Z,38.98
2022-08-25T19:16:11.959Z,39.21
2022-08-25T19:18:42.075Z,39.06
2022-08-25T19:21:10.806Z,38.97
2022-08-25T19:23:39.052Z,39.58
2022-08-25T19:26:16.945Z,39.18
2022-08-25T19:28:48.982Z,39.05
2022-08-25T19:31:23.044Z,38.82
2022-08-25T19:33:55.193Z,38.07
2022-08-25T19:36:28.137Z,37.47
2022-08-25T19:38:59.004Z,37.61
2022-08-25T19:41:29.720Z,38.06
2022-08-25T19:43:57.814Z,38.99
2022-08-25T19:46:32.130Z,39.23
2022-08-25T19:49:08.062Z,39.65
2022-08-25T19:51:38.924Z,40.10
2022-08-25T19:54:09.046Z,40.72
2022-08-25T19:56:44.041Z,40.46
2022-08-25T19:59:25.463Z,40.11
2022-08-25T20:01:54.684Z,40.16
2022-08-25T20:04:24.197Z,40.52
2022-08-25T20:06:55.542Z,39.95
2022-08-25T20:09:39.206Z,40.18
2022-08-25T20:12:10.499Z,40.46
2022-08-25T20:14:38.671Z,41.46
2022-08-25T20:17:23.092Z,40.82
2022-08-25T20:19:56.056Z,41.04
2022-08-25T20:22:29.686Z,40.74
2022-08-25T20:25:07.339Z,40.63
2022-08-25T20:27:45.024Z,40.64
2022-08-25T20:30:20.642Z,39.66
2022-08-25T20:32:52.142Z,39.69
2022-08-25T20:35:26.470Z,39.47
2022-08-25T20:37:56.944Z,39.47
2022-08-25T20:40:26.214Z,38.74
2022-08-25T20:42:54.970Z,39.28
2022-08-25T20:45:23.399Z,39.25
2022-08-25T20:47:52.390Z,39.62
2022-08-25T20:50:20.718Z,39.77
2022-08-25T20:52:48.670Z,39.83
2022-08-25T20:55:18.826Z,39.97
2022-08-25T20:57:47.128Z,39.19
2022-08-25T21:00:16.560Z,39.20
2022-08-25T21:02:46.344Z,39.32
2022-08-25T21:05:14.551Z,39.71
2022-08-25T21:07:42.735Z,40.19
2022-08-25T21:10:14.523Z,39.98
2022-08-25T21:12:45.066Z,39.51
2022-08-25T21:15:17.039Z,38.95
2022-08-25T21:17:50.198Z,39.28
2022-08-25T21:20:18.486Z,38.25
2022-08-25T21:22:46.265Z,37.05
2022-08-25T21:25:14.479Z,38.50
2022-08-25T21:27:43.474Z,39.67
2022-08-25T21:30:12.389Z,38.72
2022-08-25T21:32:40.115Z,37.38
2022-08-25T21:35:23.879Z,37.72
2022-08-25T21:37:53.887Z,37.91
2022-08-25T21:40:23.145Z,37.94
2022-08-25T21:42:52.491Z,38.08
2022-08-25T21:45:21.989Z,37.66
2022-08-25T21:47:50.286Z,38.20
2022-08-25T21:50:20.387Z,39.99
2022-08-25T21:52:48.198Z,39.60
2022-08-25T21:55:23.435Z,38.95
2022-08-25T21:57:51.524Z,39.58
2022-08-25T22:00:21.273Z,38.79
2022-08-25T22:02:50.044Z,39.53
2022-08-25T22:05:18.263Z,39.63
2022-08-25T22:07:45.931Z,38.96
2022-08-25T22:10:16.777Z,40.94
2022-08-25T22:12:48.931Z,41.25
2022-08-25T22:15:18.395Z,40.26
2022-08-25T22:17:48.005Z,39.67
2022-08-25T22:20:18.422Z,39.57
2022-08-25T22:22:46.426Z,40.83
2022-08-25T22:25:14.555Z,40.20
2022-08-25T22:27:42.509Z,40.04
2022-08-25T22:30:11.464Z,40.51
2022-08-25T22:32:39.236Z,40.65
2022-08-25T22:35:08.037Z,41.40
2022-08-25T22:37:37.643Z,42.20
2022-08-25T22:40:06.286Z,41.99
2022-08-25T22:42:33.999Z,42.53
2022-08-25T22:45:02.016Z,43.07
2022-08-25T22:47:31.261Z,43.16
2022-08-25T22:49:59.239Z,43.46
2022-08-25T22:52:33.334Z,43.52
2022-08-25T22:55:02.993Z,44.39
2022-08-25T22:57:31.676Z,44.40
2022-08-25T22:59:59.442Z,44.13
2022-08-25T23:02:30.497Z,43.70
2022-08-25T23:05:00.949Z,44.05
2022-08-25T23:07:29.150Z,44.19
2022-08-25T23:09:59.786Z,44.23
2022-08-25T23:12:27.815Z,44.50
2022-08-25T23:14:55.933Z,44.52
2022-08-25T23:17:23.614Z,44.04
2022-08-25T23:19:51.620Z,43.56
2022-08-25T23:22:19.869Z,42.82
2022-08-25T23:24:52.014Z,43.16
2022-08-25T23:27:21.920Z,43.12
2022-08-25T23:29:50.230Z,42.66
2022-08-25T23:32:18.529Z,43.10
2022-08-25T23:34:47.342Z,43.40
2022-08-25T23:37:18.308Z,43.95
2022-08-25T23:39:49.898Z,43.85
2022-08-25T23:42:19.853Z,43.90
2022-08-25T23:44:49.220Z,44.03
2022-08-25T23:47:18.570Z,44.04
2022-08-25T23:49:48.287Z,43.87
2022-08-25T23:52:17.726Z,43.85
2022-08-25T23:54:46.163Z,44.19
2022-08-25T23:57:14.061Z,43.63
2022-08-25T23:59:43.312Z,44.64
